Time;durP1;ratioP1;P1;durP2;ratioP2;P2;SDS_P1;SDS_P2;PMS_P1;PMS_P2;Temp;Humidity;BMP_temperature;BMP_pressure;BME280_temperature;BME280_humidity;BME280_pressure;Samples;Min_cycle;Max_cycle;Signal;HPM_P1;HPM_P2
2022/08/02 00:00:16;;;;;;;24.90;11.70;;;;;;;29.72;72.75;100678.78;5007932;28;66040;-31
2022/08/02 00:02:48;;;;;;;25.25;11.38;;;;;;;29.72;74.48;100684.19;4946903;28;70540;-29
2022/08/02 00:05:22;;;;;;;22.02;11.70;;;;;;;29.20;76.29;100605.06;4952661;28;43168;-31
2022/08/02 00:07:54;;;;;;;16.42;11.73;;;;;;;29.74;76.55;100692.09;4949898;28;70011;-32
2022/08/02 00:10:25;;;;;;;14.40;11.73;;;;;;;29.78;76.71;100699.56;5014452;28;66631;-31
2022/08/02 00:12:57;;;;;;;11.65;10.45;;;;;;;29.75;76.11;100691.88;4946521;28;69556;-33
2022/08/02 00:15:28;;;;;;;9.80;8.87;;;;;;;29.80;76.31;100707.44;4951210;28;66294;-31
2022/08/02 00:17:59;;;;;;;11.60;9.25;;;;;;;29.80;76.97;100708.28;4943091;28;70485;-30
2022/08/02 00:20:31;;;;;;;9.70;8.80;;;;;;;29.81;76.69;100706.38;4946225;28;66285;-31
2022/08/02 00:23:02;;;;;;;10.05;9.13;;;;;;;29.63;76.58;100674.69;4995497;28;69441;-31
2022/08/02 00:25:34;;;;;;;13.55;9.43;;;;;;;29.88;77.01;100711.78;4955967;28;65486;-30
2022/08/02 00:28:25;;;;;;;13.45;10.60;;;;;;;29.92;77.31;100710.28;4946620;28;70174;-31
2022/08/02 00:30:58;;;;;;;14.68;9.35;;;;;;;29.53;76.87;100633.75;5018260;28;66363;-32
2022/08/02 00:33:30;;;;;;;59.47;14.27;;;;;;;29.97;76.47;100700.47;4962628;28;70487;-30
2022/08/02 00:36:21;;;;;;;41.53;12.32;;;;;;;30.03;76.08;100706.88;4960541;28;65551;-29
2022/08/02 00:38:53;;;;;;;32.47;11.00;;;;;;;30.07;76.08;100702.69;4964920;28;69472;-30
2022/08/02 00:41:24;;;;;;;21.35;10.60;;;;;;;30.12;76.11;100711.00;4966827;28;66445;-30
2022/08/02 00:43:57;;;;;;;15.52;9.48;;;;;;;29.35;74.99;100581.28;4955415;28;69559;-31
2022/08/02 00:46:28;;;;;;;15.90;9.10;;;;;;;30.10;72.73;100683.31;4953695;28;66321;-30
2022/08/02 00:49:00;;;;;;;11.50;8.07;;;;;;;30.36;71.34;100716.66;4952438;28;70017;-30
2022/08/02 00:51:31;;;;;;;11.15;7.47;;;;;;;30.43;70.79;100717.44;4963554;28;66019;-31
2022/08/02 00:54:03;;;;;;;10.45;7.53;;;;;;;30.54;70.98;100722.13;4952432;28;69092;-30
2022/08/02 00:56:35;;;;;;;12.60;6.97;;;;;;;30.60;70.67;100729.38;4956468;28;66220;-31
2022/08/02 00:59:18;;;;;;;9.88;7.30;;;;;;;30.68;70.29;100736.38;4960782;28;70525;-31
2022/08/02 01:01:51;;;;;;;9.50;6.90;;;;;;;30.72;70.11;100730.28;4950240;28;66426;-30
2022/08/02 01:04:27;;;;;;;7.68;6.78;;;;;;;30.78;69.62;100730.44;4957260;28;70465;-30
2022/08/02 01:07:05;;;;;;;12.50;6.90;;;;;;;30.82;69.55;100732.53;4955177;28;65278;-29
2022/08/02 01:09:43;;;;;;;9.48;6.30;;;;;;;30.82;68.98;100729.81;4950312;28;69997;-30
2022/08/02 01:12:15;;;;;;;9.55;7.00;;;;;;;30.46;68.70;100673.69;5004199;28;66389;-30
2022/08/02 01:14:50;;;;;;;14.82;6.90;;;;;;;30.50;69.18;100669.47;4951765;28;70097;-31
2022/08/02 01:17:50;;;;;;;6.18;5.63;;;;;;;30.89;69.18;100743.28;4950560;28;66014;-31
2022/08/02 01:20:21;;;;;;;14.63;6.00;;;;;;;31.00;68.13;100745.25;4955176;28;70060;-30
2022/08/02 01:23:18;;;;;;;9.40;5.97;;;;;;;30.82;68.67;100731.69;4954994;28;65409;-30
2022/08/02 01:26:18;;;;;;;8.18;5.53;;;;;;;31.05;68.58;100753.53;4958478;28;71330;-30
2022/08/02 01:28:58;;;;;;;9.77;6.20;;;;;;;31.09;68.18;100757.47;4955225;28;66471;-30
2022/08/02 01:31:35;;;;;;;9.07;6.15;;;;;;;31.09;67.72;100743.91;4955144;28;69747;-29
2022/08/02 01:34:20;;;;;;;9.70;5.75;;;;;;;31.20;67.34;100764.00;4952562;28;65579;-30
2022/08/02 01:37:32;;;;;;;11.98;5.68;;;;;;;31.11;67.57;100768.88;4952641;28;69987;-30
2022/08/02 01:40:11;;;;;;;8.85;5.47;;;;;;;30.87;67.41;100707.44;4948846;28;66351;-30
2022/08/02 01:42:49;;;;;;;11.57;5.38;;;;;;;31.20;67.36;100755.03;4959520;28;69801;-31
2022/08/02 01:45:22;;;;;;;7.65;5.18;;;;;;;31.22;67.02;100753.75;4970810;28;65737;-30
2022/08/02 01:47:55;;;;;;;8.00;5.60;;;;;;;31.38;66.41;100774.06;4952761;28;70546;-29
2022/08/02 01:50:36;;;;;;;7.95;5.80;;;;;;;31.37;66.65;100766.97;4977615;28;65584;-31
2022/08/02 01:53:10;;;;;;;;;;;;;;;31.08;67.42;100763.09;4961801;28;70126;-29
2022/08/02 01:55:45;;;;;;;18.25;4.93;;;;;;;31.43;66.29;100760.66;4965920;28;66237;-30
2022/08/02 01:58:32;;;;;;;12.25;5.47;;;;;;;31.22;66.15;100720.41;4953420;28;69812;-30
2022/08/02 02:01:05;;;;;;;13.82;5.43;;;;;;;31.52;65.98;100764.69;4952674;28;66437;-30
2022/08/02 02:03:40;;;;;;;49.85;6.45;;;;;;;31.49;66.06;100751.59;4952118;28;69039;-30
2022/08/02 02:06:12;;;;;;;46.90;7.07;;;;;;;31.55;66.40;100753.41;4947189;28;66737;-31
2022/08/02 02:08:44;;;;;;;54.28;7.75;;;;;;;31.64;67.02;100755.78;4949361;28;69595;-30
2022/08/02 02:11:16;;;;;;;41.90;6.50;;;;;;;31.67;67.94;100755.34;5019686;28;66365;-30
2022/08/02 02:14:09;;;;;;;56.70;8.18;;;;;;;31.69;68.29;100748.63;4957601;28;70051;-31
2022/08/02 02:16:44;;;;;;;39.22;6.85;;;;;;;31.24;67.96;100664.13;4945739;28;66600;-30
2022/08/02 02:19:18;;;;;;;28.50;6.93;;;;;;;31.65;67.95;100731.19;4956532;28;70354;-30
2022/08/02 02:21:51;;;;;;;42.22;7.00;;;;;;;31.75;67.83;100746.88;4954471;28;65595;-31
2022/08/02 02:24:23;;;;;;;26.45;5.68;;;;;;;31.81;67.83;100748.66;4961387;28;69714;-30
2022/08/02 02:26:58;;;;;;;30.35;7.15;;;;;;;31.87;67.54;100753.16;4955531;28;65308;-28
2022/08/02 02:29:32;;;;;;;29.60;7.03;;;;;;;31.42;66.94;100674.94;4965357;28;69198;-31
2022/08/02 02:32:05;;;;;;;32.92;6.40;;;;;;;31.93;67.04;100754.16;4962615;28;66537;-30
2022/08/02 02:34:41;;;;;;;18.80;6.10;;;;;;;31.97;66.73;100747.25;5018612;28;69636;-30
2022/08/02 02:37:18;;;;;;;27.08;6.22;;;;;;;31.55;66.60;100682.09;4955171;28;66220;-30
2022/08/02 02:39:53;;;;;;;26.40;6.22;;;;;;;32.03;66.55;100763.41;4953926;28;70384;-30
2022/08/02 02:42:34;;;;;;;29.83;6.68;;;;;;;32.04;66.11;100765.09;4962745;28;65749;-31
2022/08/02 02:45:10;;;;;;;28.75;5.93;;;;;;;32.09;65.99;100752.69;4961736;28;70647;-30
2022/08/02 02:47:42;;;;;;;19.50;5.68;;;;;;;32.05;65.77;100755.88;5019314;28;65810;-30
2022/08/02 02:50:16;;;;;;;24.30;5.20;;;;;;;32.12;65.97;100752.22;4952872;28;69625;-29
2022/08/02 02:52:48;;;;;;;28.52;5.88;;;;;;;32.18;65.78;100751.28;4957793;28;66254;-31
2022/08/02 02:55:20;;;;;;;26.95;6.50;;;;;;;32.16;65.54;100751.53;4959983;28;70579;-30
2022/08/02 02:57:52;;;;;;;15.40;5.63;;;;;;;32.16;65.49;100745.28;4947017;28;65466;-32
2022/08/02 03:03:16;;;;;;;14.63;5.25;;;;;;;32.17;64.98;100739.63;4954008;28;66130;-31
2022/08/02 03:05:50;;;;;;;13.40;4.80;;;;;;;32.27;64.96;100755.34;4949857;28;71267;-31
2022/08/02 03:08:22;;;;;;;28.98;6.03;;;;;;;32.29;64.82;100745.09;4951774;28;65710;-30
2022/08/02 03:10:54;;;;;;;14.88;4.70;;;;;;;32.28;65.01;100748.84;4955717;28;69807;-30
2022/08/02 03:13:26;;;;;;;16.40;5.03;;;;;;;32.31;64.68;100740.22;4945368;28;66102;-30
2022/08/02 03:16:06;;;;;;;22.20;5.93;;;;;;;32.33;64.72;100732.69;4965296;28;69492;-31
2022/08/02 03:18:45;;;;;;;23.17;5.07;;;;;;;32.34;64.35;100733.50;4945358;28;66549;-31
2022/08/02 03:21:16;;;;;;;19.42;5.40;;;;;;;32.35;64.51;100740.63;4951750;28;69556;-29
2022/08/02 03:23:48;;;;;;;19.08;5.07;;;;;;;32.33;64.54;100727.25;4947734;28;65569;-29
2022/08/02 03:26:20;;;;;;;11.50;4.50;;;;;;;32.27;64.44;100720.88;4948242;28;70354;-30
2022/08/02 03:28:51;;;;;;;12.88;4.78;;;;;;;32.37;64.23;100725.72;4958001;28;66391;-30
2022/08/02 03:31:23;;;;;;;18.33;4.43;;;;;;;32.36;64.33;100724.06;5018189;28;69661;-30
2022/08/02 03:33:57;;;;;;;18.40;5.07;;;;;;;31.95;63.99;100647.06;4956565;28;65268;-31
2022/08/02 03:36:32;;;;;;;8.95;4.05;;;;;;;32.33;63.58;100700.13;4950400;28;70284;-30
2022/08/02 03:39:04;;;;;;;19.98;4.90;;;;;;;32.43;63.79;100716.66;4953048;28;65981;-30
2022/08/02 03:41:37;;;;;;;14.13;4.80;;;;;;;32.33;63.48;100705.53;4956627;28;69310;-30
2022/08/02 03:44:10;;;;;;;20.25;4.43;;;;;;;32.44;63.83;100729.16;4952694;28;66216;-30
2022/08/02 03:46:42;;;;;;;8.77;3.95;;;;;;;32.40;63.78;100711.69;4952494;28;70248;-31
2022/08/02 03:49:17;;;;;;;12.25;4.45;;;;;;;31.97;63.49;100650.38;4954037;28;65700;-30
2022/08/02 03:51:49;;;;;;;13.63;4.35;;;;;;;32.47;63.50;100723.28;5014288;28;69594;-30
2022/08/02 03:54:21;;;;;;;7.07;4.13;;;;;;;32.49;63.49;100733.94;4954673;28;65427;-30
2022/08/02 03:57:09;;;;;;;11.10;4.10;;;;;;;32.48;63.26;100718.69;4951669;28;70578;-31
2022/08/02 03:59:42;;;;;;;8.25;4.13;;;;;;;32.15;63.32;100675.78;4954017;28;65865;-31
2022/08/02 04:02:13;;;;;;;13.98;4.40;;;;;;;32.53;63.46;100726.13;4949158;28;69696;-30
2022/08/02 04:04:45;;;;;;;10.90;4.18;;;;;;;32.52;63.35;100721.78;4949815;28;66537;-30
2022/08/02 04:07:16;;;;;;;6.20;3.78;;;;;;;32.53;63.14;100709.84;4951286;28;70255;-32
2022/08/02 04:10:08;;;;;;;5.63;3.97;;;;;;;32.55;63.38;100710.44;4948351;28;66908;-30
2022/08/02 04:12:40;;;;;;;9.07;4.35;;;;;;;32.56;63.19;100698.50;4947042;28;70193;-30
2022/08/02 04:15:14;;;;;;;10.00;4.30;;;;;;;32.43;62.97;100684.09;4943926;28;65178;-31
2022/08/02 04:17:52;;;;;;;7.35;4.20;;;;;;;32.51;62.77;100684.81;4953561;28;69718;-30
2022/08/02 04:20:29;;;;;;;8.80;4.45;;;;;;;32.60;62.88;100697.81;4948264;28;66598;-30
2022/08/02 04:23:09;;;;;;;7.72;4.03;;;;;;;32.62;62.79;100697.56;4949971;28;69865;-31
2022/08/02 04:25:44;;;;;;;4.70;3.42;;;;;;;32.62;62.92;100692.13;4951247;28;66314;-29
2022/08/02 04:28:20;;;;;;;4.60;3.78;;;;;;;32.63;62.89;100689.19;5012751;28;69125;-31
2022/08/02 04:31:00;;;;;;;9.73;3.65;;;;;;;32.26;62.88;100628.81;5019574;28;65953;-31
2022/08/02 04:33:32;;;;;;;9.90;3.75;;;;;;;32.67;62.60;100689.53;4957304;28;69439;-31
2022/08/02 04:36:06;;;;;;;8.50;3.63;;;;;;;32.67;62.56;100682.19;4948487;28;64928;-29
2022/08/02 04:38:37;;;;;;;5.40;3.85;;;;;;;32.69;62.63;100677.38;4956235;28;70368;-29
2022/08/02 04:41:09;;;;;;;5.00;3.22;;;;;;;32.69;62.50;100674.66;4955510;28;66106;-31
2022/08/02 04:43:40;;;;;;;9.07;3.85;;;;;;;32.71;62.72;100669.00;4953412;28;69555;-31
2022/08/02 04:46:12;;;;;;;8.23;3.85;;;;;;;32.74;62.61;100671.22;4946374;28;66085;-32
2022/08/02 04:48:43;;;;;;;;;;;;;;;32.42;63.11;100671.56;4949422;28;69433;-33
2022/08/02 04:51:15;;;;;;;10.05;3.53;;;;;;;32.74;62.42;100673.94;5003656;28;65126;-31
2022/08/02 04:53:46;;;;;;;6.68;3.63;;;;;;;32.77;62.64;100661.78;4945187;28;69998;-30
2022/08/02 04:56:18;;;;;;;5.00;4.00;;;;;;;32.78;62.52;100642.50;4950408;28;66257;-30
2022/08/02 04:58:49;;;;;;;8.18;3.22;;;;;;;32.81;62.26;100650.19;4951318;28;69441;-30
2022/08/02 05:01:21;;;;;;;3.75;3.28;;;;;;;32.86;62.09;100650.28;4952471;28;66590;-31
2022/08/02 05:03:53;;;;;;;5.95;3.40;;;;;;;32.86;62.17;100650.28;4947502;28;70961;-31
2022/08/02 05:06:24;;;;;;;4.35;3.55;;;;;;;32.78;62.05;100626.22;4952263;28;66718;-31
2022/08/02 05:08:56;;;;;;;4.07;3.33;;;;;;;32.87;61.96;100635.63;4947456;28;69479;-30
2022/08/02 05:11:27;;;;;;;;;;;;;;;32.61;62.73;100644.31;4950014;28;66419;-30
2022/08/02 05:14:05;;;;;;;5.30;3.28;;;;;;;32.91;62.12;100631.38;4951332;28;70053;-32
2022/08/02 05:16:37;;;;;;;3.90;3.28;;;;;;;32.93;61.89;100639.28;4956266;28;66072;-30
2022/08/02 05:19:08;;;;;;;;;;;;;;;32.63;62.71;100640.31;4957890;28;70398;-30
2022/08/02 05:21:39;;;;;;;3.53;3.08;;;;;;;32.96;62.03;100643.41;4956881;28;66634;-31
2022/08/02 05:24:11;;;;;;;5.07;3.28;;;;;;;32.98;61.77;100646.72;4956332;28;69539;-31
2022/08/02 05:26:42;;;;;;;3.67;3.30;;;;;;;33.01;61.83;100646.28;5015797;28;65260;-31
2022/08/02 05:29:13;;;;;;;2.83;2.60;;;;;;;33.03;61.86;100636.00;4955683;28;70234;-32
2022/08/02 05:31:45;;;;;;;3.20;2.90;;;;;;;33.02;61.53;100620.78;5021941;28;65471;-33
2022/08/02 05:34:17;;;;;;;3.38;2.03;;;;;;;33.00;61.83;100612.84;4955888;28;69692;-31
2022/08/02 05:36:48;;;;;;;3.15;2.60;;;;;;;33.06;61.32;100605.63;4973489;28;65247;-32
2022/08/02 05:39:20;;;;;;;3.00;2.53;;;;;;;33.08;61.34;100589.91;4951805;28;69569;-33
2022/08/02 05:41:52;;;;;;;2.58;1.90;;;;;;;33.05;61.06;100574.91;4969446;28;66186;-30
2022/08/02 05:44:23;;;;;;;2.78;2.45;;;;;;;33.09;61.10;100573.34;4955736;28;69928;-31
2022/08/02 05:46:55;;;;;;;2.55;2.35;;;;;;;33.11;60.92;100575.81;4955002;28;66271;-31
2022/08/02 05:49:26;;;;;;;7.55;2.03;;;;;;;33.15;61.02;100582.41;4968993;28;69936;-32
2022/08/02 05:52:25;;;;;;;2.17;1.98;;;;;;;33.03;60.96;100573.50;4952220;28;66121;-30
2022/08/02 05:55:03;;;;;;;6.13;2.05;;;;;;;33.20;60.54;100574.34;4970564;28;69763;-30
2022/08/02 05:57:52;;;;;;;2.20;2.00;;;;;;;32.78;60.40;100501.25;4957166;28;66054;-31
2022/08/02 06:00:25;;;;;;;2.50;2.30;;;;;;;33.23;60.76;100557.56;4966297;28;69503;-31
2022/08/02 06:03:29;;;;;;;1.95;1.75;;;;;;;32.72;60.44;100485.94;4968505;28;66119;-30
2022/08/02 06:06:04;;;;;;;2.13;1.92;;;;;;;33.12;60.09;100529.38;4959983;28;70814;-30
2022/08/02 06:08:43;;;;;;;4.25;1.73;;;;;;;33.26;60.12;100542.66;4954926;28;66409;-30
2022/08/02 06:11:20;;;;;;;1.95;1.50;;;;;;;33.26;60.27;100550.81;4956279;28;69694;-30
2022/08/02 06:13:53;;;;;;;3.30;1.90;;;;;;;33.32;60.14;100547.97;4956258;28;65413;-30
2022/08/02 06:16:27;;;;;;;1.83;1.60;;;;;;;32.80;59.87;100463.81;4953606;28;70765;-30
2022/08/02 06:19:03;;;;;;;2.30;1.75;;;;;;;33.35;59.94;100550.19;4958310;28;66253;-31
2022/08/02 06:21:35;;;;;;;2.35;1.90;;;;;;;33.37;59.93;100547.19;4949514;28;69757;-31
2022/08/02 06:24:28;;;;;;;1.95;1.50;;;;;;;33.38;59.88;100549.69;4953627;28;66194;-30
2022/08/02 06:27:01;;;;;;;1.98;1.40;;;;;;;33.43;59.78;100545.41;4948639;28;70339;-32
2022/08/02 06:29:33;;;;;;;2.03;1.83;;;;;;;33.42;59.43;100541.03;4948754;28;66431;-31
2022/08/02 06:32:08;;;;;;;4.88;1.65;;;;;;;33.44;59.69;100537.00;4957018;28;69799;-30
2022/08/02 06:34:40;;;;;;;4.25;2.03;;;;;;;33.49;59.46;100528.09;4948620;28;65859;-30
2022/08/02 06:37:34;;;;;;;5.57;1.80;;;;;;;33.43;59.25;100515.50;4952223;28;69849;-30
2022/08/02 06:40:29;;;;;;;4.07;1.75;;;;;;;33.27;59.29;100498.13;4955774;28;65685;-31
2022/08/02 06:43:12;;;;;;;1.98;1.40;;;;;;;33.08;58.63;100451.31;4951088;28;69322;-32
2022/08/02 06:45:43;;;;;;;3.15;1.65;;;;;;;33.56;58.98;100515.19;4959649;28;66601;-31
2022/08/02 06:48:15;;;;;;;3.40;1.73;;;;;;;33.57;59.48;100505.97;4959864;28;69638;-30
2022/08/02 06:50:46;;;;;;;3.67;1.50;;;;;;;33.59;59.02;100501.91;4955427;28;66101;-30
2022/08/02 06:53:18;;;;;;;1.70;1.52;;;;;;;33.62;59.16;100495.16;4954256;28;70378;-31
2022/08/02 06:55:49;;;;;;;1.65;1.55;;;;;;;33.65;59.13;100500.09;4951941;28;66163;-31
2022/08/02 06:58:21;;;;;;;1.73;1.20;;;;;;;33.70;58.77;100491.22;4952627;28;69871;-31
2022/08/02 07:00:52;;;;;;;3.08;1.30;;;;;;;33.71;58.83;100493.69;4956357;28;65493;-30
2022/08/02 07:03:27;;;;;;;3.85;1.73;;;;;;;33.75;58.67;100497.53;4948463;28;69983;-31
2022/08/02 07:05:58;;;;;;;14.45;1.88;;;;;;;33.79;58.68;100485.13;4948767;28;66434;-30
2022/08/02 07:08:34;;;;;;;9.40;1.70;;;;;;;33.81;58.58;100488.38;4946913;28;70312;-30
2022/08/02 07:11:07;;;;;;;5.07;1.52;;;;;;;33.84;58.39;100486.25;4959630;28;65606;-31
2022/08/02 07:13:39;;;;;;;2.90;1.73;;;;;;;33.82;58.45;100483.75;4958928;28;70174;-31
2022/08/02 07:16:10;;;;;;;10.10;2.00;;;;;;;33.76;58.41;100466.53;4956082;28;66305;-30
2022/08/02 07:18:42;;;;;;;8.77;1.92;;;;;;;33.89;58.21;100478.16;4953504;28;69117;-31
2022/08/02 07:21:14;;;;;;;5.07;1.80;;;;;;;33.91;58.61;100471.41;4951508;28;66381;-30
2022/08/02 07:24:05;;;;;;;4.73;1.93;;;;;;;33.90;58.63;100471.63;4946819;28;70720;-31
2022/08/02 07:26:37;;;;;;;12.07;1.77;;;;;;;33.93;58.32;100462.97;4946270;28;66260;-30
2022/08/02 07:29:28;;;;;;;9.83;1.80;;;;;;;33.84;58.14;100448.16;4946057;28;70459;-31
2022/08/02 07:32:34;;;;;;;8.20;2.33;;;;;;;33.87;58.08;100447.66;4943103;28;66355;-31
2022/08/02 07:35:06;;;;;;;8.87;2.13;;;;;;;33.97;58.29;100442.34;4952263;28;69291;-31
2022/08/02 07:37:41;;;;;;;7.10;2.30;;;;;;;34.01;58.19;100438.84;4948940;28;66257;-31
2022/08/02 07:40:27;;;;;;;4.50;1.90;;;;;;;33.55;58.14;100364.00;4945994;28;70165;-32
2022/08/02 07:42:59;;;;;;;14.43;1.92;;;;;;;34.04;57.85;100442.97;4949868;28;67158;-31
2022/08/02 07:45:33;;;;;;;6.07;1.95;;;;;;;34.06;58.08;100435.41;4953551;28;70287;-31
2022/08/02 07:48:25;;;;;;;12.65;2.13;;;;;;;34.09;58.12;100432.19;4964116;28;66866;-31
2022/08/02 07:50:57;;;;;;;9.70;2.05;;;;;;;34.10;57.98;100424.84;4954494;28;70083;-31
2022/08/02 07:53:29;;;;;;;;;;;;;;;33.84;58.48;100431.84;4950361;28;66139;-30
2022/08/02 07:56:20;;;;;;;4.65;2.30;;;;;;;34.09;58.26;100434.91;4949419;28;70244;-30
2022/08/02 07:58:52;;;;;;;8.20;1.92;;;;;;;34.09;58.03;100423.22;4950182;28;65959;-30
2022/08/02 08:01:24;;;;;;;2.83;2.00;;;;;;;34.19;58.04;100437.78;4952253;28;70388;-31
2022/08/02 08:03:55;;;;;;;4.90;2.20;;;;;;;34.20;58.03;100424.97;4953874;28;66463;-31
2022/08/02 08:06:27;;;;;;;4.63;2.22;;;;;;;34.20;57.82;100414.91;4949730;28;69924;-31
2022/08/02 08:08:59;;;;;;;4.60;2.00;;;;;;;34.22;57.92;100406.50;4951196;28;66270;-31
2022/08/02 08:11:30;;;;;;;5.95;2.15;;;;;;;34.24;57.84;100409.75;4962207;28;69986;-30
2022/08/02 08:14:01;;;;;;;;;;;;;;;33.95;58.11;100403.69;4982688;28;65301;-31
2022/08/02 08:16:33;;;;;;;6.60;1.90;;;;;;;34.23;58.02;100400.78;4944204;28;68912;-30
2022/08/02 08:19:04;;;;;;;4.13;2.22;;;;;;;34.21;58.12;100389.34;4964025;28;65952;-31
2022/08/02 08:21:35;;;;;;;7.07;1.88;;;;;;;34.19;57.86;100391.50;4948978;28;70672;-31
2022/08/02 08:24:07;;;;;;;4.18;2.63;;;;;;;34.28;57.81;100404.66;4950590;28;66092;-31
2022/08/02 08:26:38;;;;;;;;;;;;;;;33.81;58.18;100363.25;4948167;28;70118;-30
2022/08/02 08:29:10;;;;;;;6.28;2.20;;;;;;;34.27;57.98;100395.69;4952634;28;65425;-31
2022/08/02 08:31:41;;;;;;;6.07;2.63;;;;;;;34.28;57.71;100385.59;4947929;28;70085;-30
2022/08/02 08:34:13;;;;;;;5.10;2.22;;;;;;;34.30;57.86;100380.69;4944679;28;66153;-30
2022/08/02 08:36:44;;;;;;;7.25;2.00;;;;;;;34.32;57.85;100373.09;4946670;28;70717;-31
2022/08/02 08:39:16;;;;;;;4.22;2.53;;;;;;;34.32;57.56;100373.09;4952895;28;65181;-31
2022/08/02 08:41:47;;;;;;;5.85;2.40;;;;;;;34.32;57.73;100362.22;4957983;28;70147;-30
2022/08/02 08:44:19;;;;;;;6.47;2.33;;;;;;;34.35;57.52;100361.69;4953620;28;65718;-31
2022/08/02 08:46:51;;;;;;;12.90;2.22;;;;;;;34.34;57.48;100354.63;4968439;28;69149;-31
2022/08/02 08:49:29;;;;;;;4.40;2.20;;;;;;;33.90;57.63;100282.00;4949311;28;66567;-31
2022/08/02 08:52:04;;;;;;;8.75;2.50;;;;;;;34.03;57.54;100310.72;4969136;28;70347;-31
2022/08/02 08:54:43;;;;;;;8.15;2.38;;;;;;;33.78;57.51;100271.25;4955979;28;66683;-32
2022/08/02 08:57:19;;;;;;;5.72;2.13;;;;;;;34.35;57.73;100356.25;4954836;28;70148;-31
2022/08/02 08:59:50;;;;;;;4.50;2.58;;;;;;;34.37;57.37;100351.38;4953086;28;65570;-31
2022/08/02 09:02:22;;;;;;;;;;;;;;;34.10;57.93;100365.81;4958075;28;69634;-31
2022/08/02 09:04:57;;;;;;;4.20;2.60;;;;;;;34.37;57.68;100356.81;4951498;28;66053;-30
2022/08/02 09:07:28;;;;;;;9.40;2.45;;;;;;;34.38;57.87;100344.84;4951042;28;69903;-32
2022/08/02 09:09:59;;;;;;;8.10;2.25;;;;;;;34.38;57.88;100348.41;4952051;28;66001;-30
2022/08/02 09:12:31;;;;;;;2.50;2.30;;;;;;;34.40;57.56;100353.59;4954198;28;68947;-31
2022/08/02 09:15:05;;;;;;;6.43;2.45;;;;;;;33.93;57.49;100289.63;4952803;28;66970;-32
2022/08/02 09:17:50;;;;;;;3.33;2.53;;;;;;;33.87;57.22;100304.28;4968304;28;70397;-30
2022/08/02 09:20:21;;;;;;;2.67;2.28;;;;;;;34.42;57.60;100386.84;4963742;28;66407;-30
2022/08/02 09:23:11;;;;;;;5.35;1.83;;;;;;;34.29;57.57;100373.63;4959032;28;70184;-30
2022/08/02 09:25:54;;;;;;;3.72;2.22;;;;;;;34.42;57.63;100395.81;5010716;28;67216;-32
2022/08/02 09:28:34;;;;;;;2.20;2.00;;;;;;;33.89;57.43;100299.41;4949654;28;69269;-31
2022/08/02 09:31:10;;;;;;;3.20;2.38;;;;;;;34.30;57.27;100381.56;4947757;28;66360;-31
2022/08/02 09:33:44;;;;;;;6.85;3.00;;;;;;;34.47;57.40;100408.69;4947414;28;69643;-31
2022/08/02 09:36:17;;;;;;;6.18;2.33;;;;;;;34.44;57.44;100401.03;4945145;28;66135;-29
2022/08/02 09:38:56;;;;;;;5.40;2.33;;;;;;;34.03;57.00;100349.63;4951915;28;69274;-31
2022/08/02 09:41:29;;;;;;;3.08;2.13;;;;;;;34.33;57.62;100396.56;4948234;28;66294;-30
2022/08/02 09:44:03;;;;;;;8.07;2.67;;;;;;;34.48;57.15;100438.38;4953080;28;69242;-31
2022/08/02 09:46:40;;;;;;;3.42;2.38;;;;;;;34.33;57.57;100431.94;4957445;28;66675;-33
2022/08/02 09:49:18;;;;;;;5.53;2.72;;;;;;;34.49;57.56;100477.31;4958126;28;70077;-31
2022/08/02 09:51:55;;;;;;;3.10;2.80;;;;;;;34.02;56.97;100407.06;5020245;28;65779;-31
2022/08/02 09:54:28;;;;;;;2.95;2.63;;;;;;;34.38;56.96;100464.66;4955581;28;70653;-30
2022/08/02 09:57:01;;;;;;;2.85;2.58;;;;;;;34.03;57.15;100422.28;4962252;28;65688;-31
2022/08/02 09:59:33;;;;;;;3.45;2.70;;;;;;;34.48;56.92;100524.69;4952873;28;69783;-32
2022/08/02 10:02:10;;;;;;;5.55;2.60;;;;;;;34.38;56.92;100530.00;4955713;28;66429;-30
2022/08/02 10:04:51;;;;;;;2.92;2.47;;;;;;;34.40;57.45;100555.09;4952276;28;69934;-30
2022/08/02 10:07:23;;;;;;;3.13;2.35;;;;;;;34.32;57.50;100560.97;5012750;28;65911;-31
2022/08/02 10:09:55;;;;;;;6.30;3.13;;;;;;;34.32;57.40;100564.50;4957796;28;70098;-31
2022/08/02 10:12:27;;;;;;;5.75;2.78;;;;;;;34.33;57.28;100570.81;4960248;28;66509;-30
2022/08/02 10:14:58;;;;;;;;;;;;;;;34.11;57.91;100596.06;4951794;28;71118;-32
2022/08/02 10:17:30;;;;;;;6.40;2.60;;;;;;;34.35;57.21;100598.59;4951073;28;65608;-31
2022/08/02 10:20:01;;;;;;;5.55;3.15;;;;;;;34.38;57.40;100609.81;4953575;28;69398;-30
2022/08/02 10:22:34;;;;;;;5.80;2.40;;;;;;;34.30;57.30;100584.91;4950624;28;66674;-30
2022/08/02 10:25:07;;;;;;;5.05;2.33;;;;;;;34.39;57.59;100597.03;4949659;28;69925;-32
2022/08/02 10:27:39;;;;;;;8.02;2.70;;;;;;;34.37;57.57;100593.72;4953144;28;65556;-30
2022/08/02 10:30:33;;;;;;;3.50;2.40;;;;;;;34.37;57.83;100589.09;4958158;28;69505;-31
2022/08/02 10:33:08;;;;;;;2.70;2.45;;;;;;;34.32;58.51;100580.03;4968330;28;66129;-31
2022/08/02 10:35:40;;;;;;;6.30;3.10;;;;;;;34.09;59.94;100573.72;4948181;28;70708;-32
2022/08/02 10:38:15;;;;;;;8.35;3.88;;;;;;;33.81;61.20;100542.78;4951290;28;66808;-30
2022/08/02 10:40:49;;;;;;;9.07;3.00;;;;;;;33.75;61.82;100557.41;5018398;28;69989;-32
2022/08/02 10:43:36;;;;;;;7.57;3.30;;;;;;;33.61;62.64;100552.53;4951555;28;65510;-31
2022/08/02 10:46:33;;;;;;;7.57;3.25;;;;;;;33.50;63.22;100551.50;4950785;28;70320;-31
2022/08/02 10:49:11;;;;;;;14.35;3.70;;;;;;;33.51;63.74;100558.59;4955235;28;65549;-30
2022/08/02 10:52:04;;;;;;;11.23;3.78;;;;;;;33.45;63.88;100548.69;4951674;28;70381;-30
2022/08/02 10:54:57;;;;;;;10.70;3.50;;;;;;;33.33;65.22;100560.47;4957479;28;66109;-30
2022/08/02 10:57:33;;;;;;;8.00;3.67;;;;;;;33.01;65.30;100494.09;4956225;28;69917;-31
2022/08/02 11:00:26;;;;;;;6.15;3.42;;;;;;;33.02;65.43;100521.03;4949966;28;66632;-31
2022/08/02 11:02:58;;;;;;;2.90;2.60;;;;;;;33.24;65.57;100556.50;4955824;28;69919;-32
2022/08/02 11:05:32;;;;;;;9.48;3.25;;;;;;;32.82;65.82;100490.72;5014769;28;65633;-34
2022/08/02 11:08:20;;;;;;;5.60;2.78;;;;;;;32.91;66.29;100517.28;4953889;28;69448;-33
2022/08/02 11:10:57;;;;;;;8.90;3.55;;;;;;;33.17;66.43;100550.38;4956862;28;66362;-36
2022/08/02 11:13:29;;;;;;;6.22;3.70;;;;;;;33.15;66.85;100549.78;4954128;28;68800;-34
2022/08/02 11:16:04;;;;;;;6.95;3.60;;;;;;;32.71;66.81;100489.75;4956876;28;66369;-33
2022/08/02 11:18:52;;;;;;;8.48;3.63;;;;;;;33.13;66.95;100565.53;4957332;28;69911;-32
2022/08/02 11:21:27;;;;;;;11.07;3.40;;;;;;;33.25;65.83;100574.47;4954356;28;66654;-30
2022/08/02 11:24:27;;;;;;;10.07;4.47;;;;;;;33.22;66.19;100572.22;5021221;28;69669;-32
2022/08/02 11:27:16;;;;;;;5.03;4.32;;;;;;;33.33;65.46;100573.25;4990246;28;66186;-31
2022/08/02 11:29:50;;;;;;;3.40;3.10;;;;;;;33.42;64.92;100579.09;4953666;28;69667;-32
2022/08/02 11:32:26;;;;;;;5.35;3.40;;;;;;;33.07;64.74;100514.84;4956193;28;65842;-31
2022/08/02 11:35:02;;;;;;;4.35;3.95;;;;;;;33.03;64.77;100505.56;4952000;28;70021;-33
2022/08/02 11:37:35;;;;;;;4.32;3.90;;;;;;;33.55;64.13;100566.06;4951928;28;66878;-30
2022/08/02 11:40:11;;;;;;;6.40;3.65;;;;;;;33.43;64.56;100539.97;4954193;28;69652;-33
2022/08/02 11:42:52;;;;;;;4.03;3.67;;;;;;;33.59;64.12;100560.94;5020978;28;64900;-32
2022/08/02 11:45:26;;;;;;;4.22;3.78;;;;;;;33.64;64.50;100562.94;4955741;28;70476;-31
2022/08/02 11:47:58;;;;;;;7.85;4.28;;;;;;;33.63;63.95;100562.09;4954340;28;66687;-33
2022/08/02 11:50:30;;;;;;;5.72;3.78;;;;;;;33.65;63.76;100559.94;4955676;28;69760;-34
2022/08/02 11:53:12;;;;;;;5.95;4.45;;;;;;;33.67;63.73;100568.69;5019981;28;66754;-33
2022/08/02 11:55:45;;;;;;;6.28;4.07;;;;;;;33.62;63.94;100576.75;4982506;28;68348;-30
2022/08/02 11:58:16;;;;;;;;;;;;;;;33.35;64.80;100593.69;5016179;28;64415;-36
2022/08/02 12:00:48;;;;;;;13.27;4.72;;;;;;;33.63;64.71;100592.03;5030524;28;69793;-30
2022/08/02 12:03:20;;;;;;;7.43;4.43;;;;;;;33.23;66.04;100535.81;5003100;28;65147;-30
2022/08/02 12:05:51;;;;;;;5.85;4.30;;;;;;;33.52;66.34;100584.72;4954808;28;70138;-29